• Join FlightAware (Why Join?)
  • Login
  • US Flag 
04:12AM EDT


 

Airport Tracker/Info


-or-


 

Live Flight TrackerFlight Track Log ✈ FLG3492 ✈ 05-Jul-2013 ✈ KDCA - KJFK

Flight Track Log - Related Links

Times and Time Zones

All times are in EDT time to prevent confusion due to time zone crossing. See the FLG3492 flight status page for this flight to view local times or setup timezone preferences in your user account.

Time Position Orientation Groundspeed Altitude Reporting Facility
EDT Latitude Longitude Course Direction KTS MPH feet Rate Location/Type
06:37AM 38.8000 -77.0333 90° East 168 193 2,100  Level Potomac TRACON
06:38AM 38.7667 -76.9833 131° Southeast 261 300 4,400 2,700 Climbing Potomac TRACON
06:39AM 38.9437 -76.6524 67° East  Level FlightAware Approximate
06:39AM 38.8000 -76.8667 70° East 299 344 7,600  Level Potomac TRACON
06:40AM 38.9739 -76.5544 72° East  Level FlightAware Approximate
06:40AM 38.8367 -76.7856 60° Northeast 314 361 10,400  Level Washington Center
06:41AM 38.9975 -76.4533 74° East  Level FlightAware Approximate
06:41AM 38.8833 -76.6833 60° Northeast 363 418 11,700  Level Potomac TRACON
06:42AM 39.0167 -76.3512 90° East  Level FlightAware Approximate
06:43AM 38.9958 -76.4436 59° Northeast 372 428 16,400  Level Washington Center
06:44AM 39.0281 -76.3050 73° East 384 442 17,000 240 Climbing Washington Center
06:45AM 39.0536 -76.1956 73° East 393 452 17,000  Level Washington Center
06:46AM 39.0958 -76.0408 71° East 398 458 17,000  Level Washington Center
06:47AM 39.1297 -75.9047 72° East 398 458 17,000  Level Washington Center
06:48AM 39.1653 -75.7656 72° East 398 458 17,000  Level Washington Center
06:49AM 39.1989 -75.6317 72° East 398 458 17,000  Level Washington Center
06:50AM 39.2592 -75.5031 59° Northeast 403 464 17,000  Level Washington Center
06:52AM 39.3778 -75.2589 58° Northeast 400 460 17,000  Level New York Center
06:53AM 39.4414 -75.1206 59° Northeast 405 466 17,000  Level New York Center
06:54AM 39.5003 -74.9922 59° Northeast 410 472 17,000  Level New York Center
06:55AM 39.5611 -74.8639 58° Northeast 410 472 17,000  Level New York Center
06:56AM 39.6128 -74.7483 60° Northeast 410 472 17,000  Level New York Center
06:57AM 39.6803 -74.6064 58° Northeast 418 481 17,000  Level New York Center
06:58AM 39.7386 -74.4775 59° Northeast 413 475 17,000 -300 Level New York Center
06:59AM 39.7967 -74.3481 60° Northeast 413 475 16,500 -1,080 Descending New York Center
07:00AM 39.8544 -74.2267 58° Northeast 418 481 14,900 -1,680 Descending New York Center
07:01AM 39.9103 -74.1022 60° Northeast 412 474 13,200 -1,680 Descending New York Center
07:02AM 39.9842 -73.9919 49° Northeast 392 451 11,600 -1,620 Descending New York Center
07:03AM 40.0650 -73.9361 28° Northeast 342 394 10,000 -1,740 Descending New York Center
07:04AM 40.1350 -73.8903 27° Northeast 308 354 8,200 -2,040 Descending New York Center
07:05AM 40.2167 -73.8333 28° Northeast 293 337 6,100 -1,980 Descending New York TRACON
07:06AM 40.2833 -73.8667 339° North 271 312 4,300 -1,500 Descending New York TRACON
07:07AM 40.3556 -73.9031 339° North 256 295 3,000 -660 Descending New York Center
07:08AM 40.4167 -73.9333 339° North 263 303 3,000  Level New York TRACON
07:09AM 40.4833 -73.9667 339° North 258 297 3,000 -120 Level New York TRACON
07:09AM 40.5500 -73.9667 360° North 259 298 2,800 -840 Descending New York TRACON
07:10AM 40.5833 -73.9167 49° Northeast 225 259 1,500 -1,500 Descending New York TRACON